Time;durP1;ratioP1;P1;durP2;ratioP2;P2;SDS_P1;SDS_P2;PMS_P1;PMS_P2;Temp;Humidity;BMP_temperature;BMP_pressure;BME280_temperature;BME280_humidity;BME280_pressure;Samples;Min_cycle;Max_cycle;Signal;HPM_P1;HPM_P2
2022/05/29 00:00:57;;;;;;;7.85;4.63;;;;;;;14.89;80.39;100127.03;10458544;28;20037;-71
2022/05/29 00:05:57;;;;;;;10.20;5.28;;;;;;;15.03;79.65;100149.31;10457270;28;20044;-70
2022/05/29 00:11:00;;;;;;;10.10;5.13;;;;;;;14.90;79.76;100139.41;10458581;28;20489;-70
2022/05/29 00:16:01;;;;;;;9.00;5.60;;;;;;;14.85;79.71;100139.19;10457136;28;20033;-71
2022/05/29 00:21:04;;;;;;;18.48;5.88;;;;;;;14.04;80.60;100019.59;10456632;28;20044;-71
2022/05/29 00:26:05;;;;;;;10.57;5.53;;;;;;;13.37;80.42;99909.00;10457673;28;20512;-71
2022/05/29 00:31:06;;;;;;;8.82;5.18;;;;;;;14.80;80.83;100144.31;10456599;28;20043;-70
2022/05/29 00:36:09;;;;;;;24.55;6.20;;;;;;;14.60;80.74;100125.53;10457039;28;20037;-70
2022/05/29 00:41:19;;;;;;;21.95;5.93;;;;;;;14.57;80.07;100158.00;10457027;28;20121;-70
2022/05/29 00:46:19;;;;;;;9.98;5.82;;;;;;;14.27;80.94;100133.31;10438599;28;20611;-70
2022/05/29 00:51:23;;;;;;;10.40;6.60;;;;;;;14.29;81.67;100172.19;10456497;28;20134;-70
2022/05/29 00:56:23;;;;;;;67.93;10.02;;;;;;;14.27;81.61;100165.38;10456283;28;20428;-70
2022/05/29 01:01:25;;;;;;;29.02;7.53;;;;;;;14.16;81.12;100158.75;10456654;28;20060;-70
2022/05/29 01:06:27;;;;;;;19.10;7.50;;;;;;;14.04;81.71;100158.47;10455238;28;20059;-70
2022/05/29 01:11:58;;;;;;;55.67;8.55;;;;;;;13.85;84.42;100127.97;10455723;28;20060;-70
2022/05/29 01:17:13;;;;;;;15.15;7.82;;;;;;;13.36;85.20;100072.75;10483576;28;20045;-70
2022/05/29 01:22:43;;;;;;;57.75;10.57;;;;;;;14.01;83.89;100166.88;10460042;28;20519;-70
2022/05/29 01:28:32;;;;;;;53.53;13.07;;;;;;;13.91;84.31;100169.09;10495398;28;20052;-70
2022/05/29 01:33:35;;;;;;;25.33;10.60;;;;;;;13.80;81.67;100178.44;10464484;28;20056;-70
2022/05/29 01:38:57;;;;;;;23.40;8.75;;;;;;;13.89;85.49;100189.81;10455948;28;20456;-70
2022/05/29 01:44:07;;;;;;;49.70;14.43;;;;;;;13.86;83.09;100196.34;10454410;28;20059;-70
2022/05/29 01:49:20;;;;;;;34.55;10.93;;;;;;;13.78;83.49;100193.81;10455029;28;20040;-70
2022/05/29 01:54:33;;;;;;;17.40;8.18;;;;;;;13.69;85.22;100193.13;10454482;28;20063;-70
2022/05/29 01:59:40;;;;;;;9.50;6.47;;;;;;;13.82;85.35;100207.59;10454348;28;20075;-70
2022/05/29 02:04:46;;;;;;;16.77;8.13;;;;;;;13.95;85.75;100215.72;10454068;28;20033;-70
2022/05/29 02:09:56;;;;;;;12.63;7.40;;;;;;;14.03;85.01;100204.91;10453603;28;20099;-70
2022/05/29 02:15:07;;;;;;;24.58;9.55;;;;;;;13.86;86.52;100177.66;10453338;28;20048;-70
2022/05/29 02:20:24;;;;;;;15.38;8.20;;;;;;;12.69;86.10;99985.97;10453509;28;20049;-70
2022/05/29 02:25:27;;;;;;;13.05;9.90;;;;;;;14.23;85.69;100228.25;10452699;28;20120;-70
2022/05/29 02:30:38;;;;;;;11.60;9.13;;;;;;;14.29;87.52;100232.81;10453387;28;20060;-71
2022/05/29 02:35:57;;;;;;;10.27;8.30;;;;;;;14.13;89.77;100201.91;10452951;28;20080;-71
2022/05/29 02:41:19;;;;;;;9.75;7.93;;;;;;;13.67;88.93;100114.25;10461193;28;20051;-71
2022/05/29 02:46:31;;;;;;;18.77;8.85;;;;;;;14.57;87.52;100247.03;10461558;28;20516;-71
2022/05/29 02:51:51;;;;;;;10.75;8.40;;;;;;;14.12;91.80;100139.63;10461876;28;20052;-70
2022/05/29 02:56:54;;;;;;;11.02;7.60;;;;;;;14.08;88.23;100111.66;10461550;28;20064;-71
2022/05/29 03:02:16;;;;;;;15.00;8.68;;;;;;;15.04;89.81;100244.59;10461020;28;20043;-71
2022/05/29 03:07:17;;;;;;;12.88;8.45;;;;;;;15.13;87.36;100230.00;10460536;28;20048;-70
2022/05/29 03:12:42;;;;;;;24.85;9.40;;;;;;;14.95;91.51;100187.75;10459849;28;20063;-70
2022/05/29 03:17:52;;;;;;;14.93;8.05;;;;;;;15.31;87.87;100237.47;10460166;28;20036;-70
2022/05/29 03:23:10;;;;;;;33.65;8.60;;;;;;;14.56;92.16;100116.25;10460452;28;20049;-70
2022/05/29 03:28:30;;;;;;;12.13;8.63;;;;;;;15.29;91.71;100244.91;10459844;28;20036;-72
2022/05/29 03:33:31;;;;;;;27.00;9.52;;;;;;;15.51;88.86;100232.19;10459722;28;20037;-70
2022/05/29 03:38:31;;;;;;;13.57;9.50;;;;;;;14.81;88.61;100104.00;10458971;28;20044;-70
2022/05/29 03:43:33;;;;;;;11.80;9.95;;;;;;;15.55;88.72;100214.66;10459136;28;20049;-71
2022/05/29 03:48:34;;;;;;;12.68;8.82;;;;;;;15.38;88.17;100127.78;10458888;28;20520;-70
2022/05/29 03:53:35;;;;;;;10.73;8.40;;;;;;;16.26;87.00;100245.44;10458811;28;20033;-70
2022/05/29 03:58:36;;;;;;;11.85;7.40;;;;;;;16.71;85.52;100232.16;10458876;28;20056;-71
2022/05/29 04:03:37;;;;;;;11.50;7.72;;;;;;;17.60;81.00;100134.66;10457650;28;20045;-71
2022/05/29 04:13:57;;;;;;;9.02;5.45;;;;;;;21.93;68.79;100263.47;10497906;28;20040;-72
2022/05/29 04:18:59;;;;;;;10.10;6.22;;;;;;;22.74;65.36;100247.69;10498384;28;20110;-72
2022/05/29 04:23:59;;;;;;;7.78;5.20;;;;;;;23.85;61.37;100255.47;10498481;28;20048;-72
2022/05/29 04:29:01;;;;;;;11.57;5.35;;;;;;;24.59;58.79;100241.09;10493761;28;20044;-71
2022/05/29 04:34:02;;;;;;;7.15;4.93;;;;;;;24.43;58.42;100263.81;10498913;28;20044;-72
2022/05/29 04:39:03;;;;;;;14.43;6.72;;;;;;;23.78;57.64;100159.97;10497099;28;20431;-72
2022/05/29 04:44:03;;;;;;;12.07;7.68;;;;;;;24.74;57.23;100264.81;10497921;28;20036;-72
2022/05/29 04:49:04;;;;;;;9.70;7.43;;;;;;;24.78;56.10;100237.94;10479540;28;20043;-71
2022/05/29 04:54:05;;;;;;;8.00;5.25;;;;;;;24.98;54.68;100256.25;10479790;28;20048;-72
2022/05/29 04:59:06;;;;;;;8.10;4.78;;;;;;;24.07;54.43;100140.59;10496492;28;20492;-72
2022/05/29 05:04:07;;;;;;;8.40;5.00;;;;;;;23.77;54.07;100119.50;10497683;28;20041;-72
2022/05/29 05:09:08;;;;;;;11.50;5.50;;;;;;;24.07;55.08;100247.25;10497050;28;20508;-73
2022/05/29 05:14:09;;;;;;;11.27;4.90;;;;;;;23.50;55.57;100201.69;10496354;28;20045;-72
2022/05/29 05:19:10;;;;;;;9.43;4.82;;;;;;;22.81;55.99;100129.16;10496242;28;20048;-72
2022/05/29 05:24:11;;;;;;;7.70;3.72;;;;;;;23.43;55.50;100231.75;10496261;28;20041;-72
2022/05/29 05:29:13;;;;;;;9.70;3.47;;;;;;;23.58;55.48;100239.19;10496318;28;20036;-72
2022/05/29 05:34:13;;;;;;;14.57;3.72;;;;;;;23.82;54.37;100222.63;10501484;28;20033;-70
2022/05/29 05:39:14;;;;;;;5.88;3.17;;;;;;;23.68;54.02;100222.19;10496258;28;20411;-71
2022/05/29 05:44:16;;;;;;;13.10;2.90;;;;;;;23.46;55.02;100225.00;10477563;28;20451;-71
2022/05/29 05:49:17;;;;;;;5.45;2.70;;;;;;;23.39;54.71;100218.94;10494592;28;20041;-72
2022/05/29 05:54:19;;;;;;;5.75;2.63;;;;;;;22.76;53.75;100100.16;10494126;28;20052;-72
2022/05/29 05:59:19;;;;;;;5.65;2.80;;;;;;;23.57;53.41;100210.47;10494720;28;20037;-71
2022/05/29 06:04:20;;;;;;;7.68;2.83;;;;;;;23.82;53.59;100187.38;10495104;28;20130;-71
2022/05/29 06:09:22;;;;;;;6.72;2.80;;;;;;;23.34;53.23;100111.28;10490712;28;20040;-72
2022/05/29 06:14:23;;;;;;;9.95;2.42;;;;;;;24.14;52.42;100169.16;10495719;28;20041;-69
2022/05/29 06:19:24;;;;;;;5.57;2.20;;;;;;;24.72;51.48;100198.25;10461858;28;20063;-68
2022/05/29 06:24:24;;;;;;;7.45;3.83;;;;;;;24.58;50.16;100204.16;10462386;28;20041;-72
2022/05/29 06:29:26;;;;;;;4.18;1.75;;;;;;;24.29;50.69;100175.72;10461646;28;20045;-70
2022/05/29 06:34:27;;;;;;;12.80;2.28;;;;;;;23.91;50.17;100064.53;10462129;28;20064;-69
2022/05/29 06:39:27;;;;;;;7.95;3.47;;;;;;;25.07;49.11;100186.69;10461225;28;20053;-71
2022/05/29 06:44:29;;;;;;;6.30;2.83;;;;;;;25.36;49.81;100200.63;10461591;28;20044;-71
2022/05/29 06:49:30;;;;;;;9.18;3.13;;;;;;;24.47;50.06;100074.88;10461635;28;20072;-70
2022/05/29 06:54:30;;;;;;;8.48;2.90;;;;;;;25.15;49.94;100161.72;10460622;28;20068;-73
2022/05/29 06:59:31;;;;;;;7.22;2.30;;;;;;;24.14;49.11;99962.91;10481389;28;20041;-70
2022/05/29 07:09:51;;;;;;;6.40;2.15;;;;;;;25.45;47.14;100182.69;10501867;28;20082;-71
2022/05/29 07:15:04;;;;;;;6.18;1.98;;;;;;;25.96;47.78;100204.47;10501690;28;20127;-69
2022/05/29 07:20:05;;;;;;;4.53;2.13;;;;;;;26.09;47.60;100178.63;10501420;28;20376;-68
2022/05/29 07:25:07;;;;;;;3.63;1.77;;;;;;;26.31;46.60;100182.94;10500602;28;20127;-71
2022/05/29 07:30:09;;;;;;;16.45;2.60;;;;;;;26.66;46.35;100190.22;10501611;28;20474;-68
2022/05/29 07:35:09;;;;;;;19.73;2.63;;;;;;;26.65;46.55;100185.84;10500960;28;20098;-68
2022/05/29 07:40:11;;;;;;;5.90;1.95;;;;;;;26.48;46.32;100155.38;10483046;28;20549;-70
2022/05/29 07:45:12;;;;;;;6.07;1.75;;;;;;;26.89;45.88;100166.91;10500908;28;20101;-69
2022/05/29 07:50:16;;;;;;;13.45;2.53;;;;;;;27.31;45.58;100171.91;10500858;28;20050;-70
2022/05/29 07:55:18;;;;;;;7.53;2.05;;;;;;;27.28;45.03;100158.00;10499404;28;20055;-69
2022/05/29 08:00:20;;;;;;;8.43;1.65;;;;;;;27.52;44.05;100177.19;10499500;28;20040;-69
2022/05/29 08:42:16;;;;;;;15.52;1.98;;;;;;;27.96;43.19;100138.88;10518223;27;1590505;-68
2022/05/29 08:47:24;;;;;;;5.57;2.03;;;;;;;28.29;41.74;100136.34;10568266;28;20096;-69
2022/05/29 08:53:00;;;;;;;5.40;1.75;;;;;;;28.56;41.64;100126.75;10567743;28;20401;-68
2022/05/29 08:58:16;;;;;;;10.80;2.05;;;;;;;28.06;40.80;100028.75;10531129;28;20098;-67
2022/05/29 09:03:17;;;;;;;7.93;1.90;;;;;;;28.85;40.81;100127.44;10513673;28;20036;-68
2022/05/29 09:08:21;;;;;;;6.40;2.08;;;;;;;28.67;39.95;100099.00;10530682;28;20032;-67
2022/05/29 09:13:35;;;;;;;6.22;1.67;;;;;;;29.01;40.20;100138.97;10505778;28;20044;-68
2022/05/29 09:18:40;;;;;;;35.72;4.07;;;;;;;29.19;39.91;100134.63;10489969;28;20083;-67
2022/05/29 09:24:06;;;;;;;8.85;1.98;;;;;;;29.19;37.18;100103.72;10488930;28;20128;-71
2022/05/29 09:29:09;;;;;;;10.77;1.75;;;;;;;29.26;37.42;100126.06;10488777;28;20041;-68
2022/05/29 09:34:11;;;;;;;12.13;2.20;;;;;;;29.34;37.80;100087.06;10520603;28;20140;-67
2022/05/29 09:39:26;;;;;;;4.25;1.50;;;;;;;29.73;36.88;100119.53;10529861;28;20060;-69
2022/05/29 09:44:27;;;;;;;5.15;1.50;;;;;;;29.92;36.41;100113.19;10518843;28;20117;-67
2022/05/29 09:49:42;;;;;;;17.33;2.40;;;;;;;29.98;35.88;100120.19;10523831;28;20036;-67
2022/05/29 09:55:06;;;;;;;10.15;2.00;;;;;;;30.05;35.83;100101.41;10501791;28;20048;-69
2022/05/29 10:00:11;;;;;;;15.63;2.08;;;;;;;29.91;34.03;100104.13;10502030;28;20377;-68
2022/05/29 10:05:27;;;;;;;18.23;7.43;;;;;;;30.18;35.16;100097.03;10501352;28;20135;-68
2022/05/29 10:10:32;;;;;;;10.40;2.85;;;;;;;30.23;33.02;100073.13;10500744;28;20037;-69
2022/05/29 10:15:40;;;;;;;4.10;1.60;;;;;;;30.37;33.30;100092.31;10501123;28;20040;-70
2022/05/29 10:20:44;;;;;;;8.10;2.40;;;;;;;30.47;32.21;100086.59;10502388;28;20044;-70
2022/05/29 10:25:59;;;;;;;6.60;2.15;;;;;;;30.21;31.75;100074.53;10508796;28;20044;-68
2022/05/29 10:31:05;;;;;;;4.82;1.60;;;;;;;29.79;33.09;99961.44;10500069;28;20113;-67
2022/05/29 10:36:08;;;;;;;9.60;1.88;;;;;;;29.96;32.89;99958.09;10498903;28;20132;-69
2022/05/29 10:41:10;;;;;;;3.45;1.50;;;;;;;30.82;32.31;100059.53;10420351;28;20054;-69
2022/05/29 10:46:15;;;;;;;6.60;1.70;;;;;;;30.08;31.58;99921.97;10376689;28;20042;-70
2022/05/29 10:51:22;;;;;;;7.95;1.42;;;;;;;31.06;30.85;100061.16;10375790;28;20125;-72
2022/05/29 10:56:58;;;;;;;5.63;1.67;;;;;;;31.31;31.80;100057.78;10375461;28;20041;-70
2022/05/29 11:08:18;;;;;;;6.93;3.63;;;;;;;30.58;30.17;99949.31;10375532;28;20490;-70
2022/05/29 11:13:44;;;;;;;5.75;1.95;;;;;;;31.38;30.97;100052.69;10374696;28;20102;-72
2022/05/29 11:19:12;;;;;;;3.55;1.50;;;;;;;31.67;30.20;100034.09;10372886;28;20405;-70
2022/05/29 11:24:26;;;;;;;4.88;1.77;;;;;;;31.76;28.43;100052.22;10374242;28;20038;-70
2022/05/29 11:29:53;;;;;;;8.88;2.33;;;;;;;31.59;28.54;100038.41;10358034;28;20042;-70
2022/05/29 11:35:11;;;;;;;16.75;7.72;;;;;;;31.69;28.72;100029.09;10357841;28;20046;-71
2022/05/29 11:40:27;;;;;;;8.63;2.75;;;;;;;31.87;29.19;100029.97;10372052;28;20053;-72
2022/05/29 11:51:07;;;;;;;9.90;1.75;;;;;;;31.82;28.53;100026.22;10372337;28;20508;-70
2022/05/29 11:51:18;;;;;;;6.45;1.30;;;;;;;31.58;27.42;99998.34;10347427;28;20071;-72
2022/05/29 11:56:39;;;;;;;7.57;1.50;;;;;;;31.01;26.04;99891.22;10366104;28;20045;-71
2022/05/29 12:02:26;;;;;;;5.50;1.40;;;;;;;31.86;26.29;100028.34;10330988;28;20057;-71
2022/05/29 12:07:35;;;;;;;11.60;3.30;;;;;;;31.71;26.47;100002.94;10367537;28;20132;-71
2022/05/29 12:12:50;;;;;;;5.90;2.58;;;;;;;31.81;25.39;100013.63;10355330;28;20091;-71
2022/05/29 12:18:02;;;;;;;3.65;1.38;;;;;;;31.73;25.89;100014.41;10370779;28;20559;-70
2022/05/29 12:23:21;;;;;;;3.97;1.30;;;;;;;31.11;25.33;99891.75;10355232;28;20107;-69
2022/05/29 12:28:52;;;;;;;12.32;1.98;;;;;;;31.84;25.05;99998.47;10354884;28;20046;-70
2022/05/29 12:33:54;;;;;;;4.93;1.20;;;;;;;31.34;25.39;99933.66;10372052;28;20054;-69
2022/05/29 12:39:43;;;;;;;6.53;2.15;;;;;;;31.10;24.73;99894.81;10354598;28;20487;-70
2022/05/29 12:45:20;;;;;;;9.25;2.20;;;;;;;31.88;25.87;99993.13;10341427;28;20049;-70
2022/05/29 12:50:45;;;;;;;4.10;1.77;;;;;;;31.95;24.83;100007.22;10376690;28;20045;-71
2022/05/29 12:56:16;;;;;;;8.95;1.83;;;;;;;32.04;23.95;100000.66;10412560;28;20034;-69
2022/05/29 13:01:26;;;;;;;21.05;2.90;;;;;;;31.94;25.08;99987.19;10412990;28;20038;-69
2022/05/29 13:06:45;;;;;;;5.90;1.88;;;;;;;32.03;25.15;99995.47;10412133;28;20050;-70
2022/05/29 13:11:54;;;;;;;8.25;1.80;;;;;;;31.78;24.42;99961.28;10356406;28;20133;-70
2022/05/29 13:17:05;;;;;;;8.32;2.03;;;;;;;32.01;23.87;100005.94;10367007;28;20117;-69
2022/05/29 13:22:08;;;;;;;8.70;1.60;;;;;;;31.85;24.55;99986.34;10364307;28;20104;-70
2022/05/29 13:27:09;;;;;;;;;;;;;;;32.06;23.23;100003.88;10372216;28;20124;-69
2022/05/29 13:32:15;;;;;;;5.75;1.83;;;;;;;31.87;24.34;99995.06;10378618;28;20020;-70
2022/05/29 13:37:24;;;;;;;6.70;1.70;;;;;;;31.09;24.37;99896.75;10378400;28;20038;-69
2022/05/29 13:42:32;;;;;;;7.15;1.48;;;;;;;31.10;24.51;99883.84;10375020;28;20054;-71
2022/05/29 13:54:07;;;;;;;2.95;1.30;;;;;;;31.79;24.51;99993.91;10506764;27;20432;-69
2022/05/29 14:04:42;;;;;;;7.10;1.90;;;;;;;31.66;23.81;100000.34;10489087;28;20443;-72
2022/05/29 14:10:18;;;;;;;7.63;2.20;;;;;;;31.88;23.43;100013.16;10485082;28;20415;-72
2022/05/29 14:15:46;;;;;;;9.20;1.73;;;;;;;32.07;23.17;100021.19;10485528;28;20400;-72
2022/05/29 14:21:13;;;;;;;7.35;1.52;;;;;;;31.93;23.04;100006.75;10485247;28;20048;-73
2022/05/29 14:26:48;;;;;;;3.75;1.50;;;;;;;32.18;23.76;100038.16;10476427;28;20040;-71
2022/05/29 14:32:01;;;;;;;10.77;2.42;;;;;;;32.01;23.63;100027.94;10480653;28;20037;-70
2022/05/29 14:37:40;;;;;;;19.05;7.03;;;;;;;31.89;23.67;100035.94;10479883;28;20045;-70
2022/05/29 14:42:44;;;;;;;7.50;2.20;;;;;;;31.60;23.53;100029.06;10483131;28;20135;-70
2022/05/29 14:47:52;;;;;;;11.18;2.00;;;;;;;30.86;23.79;99917.91;10487285;28;20045;-71
2022/05/29 14:53:11;;;;;;;41.15;4.03;;;;;;;30.31;24.08;99819.53;10486306;28;20053;-72
2022/05/29 14:58:32;;;;;;;58.25;4.72;;;;;;;31.61;24.75;100025.19;10459782;28;20056;-70
2022/05/29 15:03:44;;;;;;;15.13;2.57;;;;;;;31.37;24.80;100009.09;10448348;28;20045;-69
2022/05/29 15:14:10;;;;;;;5.57;1.83;;;;;;;30.95;24.93;100015.91;10417827;28;20067;-72
2022/05/29 15:24:46;;;;;;;27.83;3.35;;;;;;;29.90;26.52;99901.81;10418586;28;20037;-72
2022/05/29 15:29:51;;;;;;;25.30;3.60;;;;;;;30.64;27.28;100055.00;10417520;28;20132;-70
2022/05/29 15:35:10;;;;;;;20.88;2.70;;;;;;;30.46;27.93;100052.09;10417969;28;20120;-70
2022/05/29 15:40:16;;;;;;;6.90;2.00;;;;;;;30.07;28.82;100027.16;10417148;28;20045;-70
2022/05/29 15:45:30;;;;;;;12.40;2.30;;;;;;;29.70;30.63;100050.88;10427692;28;20540;-70
2022/05/29 15:50:55;;;;;;;16.15;4.38;;;;;;;29.48;34.42;100070.69;10417644;28;20057;-70
2022/05/29 15:56:19;;;;;;;43.78;5.80;;;;;;;28.99;37.24;100070.09;10421541;28;20432;-70
2022/05/29 16:01:21;;;;;;;75.28;8.73;;;;;;;28.26;38.20;100049.50;10415867;28;20051;-70
2022/05/29 16:06:24;;;;;;;34.25;6.50;;;;;;;27.94;39.70;100091.13;10416777;28;20037;-70
2022/05/29 16:11:38;;;;;;;68.55;7.43;;;;;;;26.54;43.77;99936.38;10416576;28;20064;-70
2022/05/29 16:16:41;;;;;;;37.38;8.50;;;;;;;26.24;43.75;99962.69;10414188;28;20045;-71
2022/05/29 16:22:02;;;;;;;49.83;9.10;;;;;;;26.62;44.76;100085.59;10416188;28;20080;-71
2022/05/29 16:27:10;;;;;;;69.07;10.90;;;;;;;26.19;46.98;100087.94;10415811;28;20561;-71
2022/05/29 16:32:14;;;;;;;276.55;24.45;;;;;;;25.76;48.49;100087.50;10414563;28;20382;-73
2022/05/29 16:48:16;;;;;;;69.05;10.35;;;;;;;24.48;52.09;100083.81;10415879;28;20036;-72
2022/05/29 16:53:19;;;;;;;34.33;8.95;;;;;;;23.94;53.39;100038.78;10414363;28;20054;-70
2022/05/29 16:58:32;;;;;;;42.53;8.27;;;;;;;24.07;55.61;100092.56;10414028;28;20041;-72
2022/05/29 17:03:56;;;;;;;47.22;10.68;;;;;;;22.96;56.66;99980.38;10414132;28;20049;-72
2022/05/29 17:09:15;;;;;;;64.03;9.88;;;;;;;22.63;56.82;99981.41;10413538;28;20045;-74
2022/05/29 17:14:16;;;;;;;32.75;6.15;;;;;;;23.03;55.48;100088.50;10429589;28;20516;-73
2022/05/29 17:19:17;;;;;;;36.08;7.38;;;;;;;23.07;55.66;100113.22;10447075;28;20047;-74
2022/05/29 17:24:40;;;;;;;28.42;5.18;;;;;;;22.85;57.17;100122.16;10452334;28;20519;-74
2022/05/29 17:29:46;;;;;;;49.07;6.53;;;;;;;22.71;56.28;100124.47;10426253;28;20037;-74
2022/05/29 17:35:14;;;;;;;47.58;12.23;;;;;;;22.61;58.01;100129.75;10412927;28;20049;-73
2022/05/29 17:40:23;;;;;;;187.30;63.60;;;;;;;22.39;57.39;100139.75;10421416;28;20053;-74
2022/05/29 17:45:24;;;;;;;80.93;23.63;;;;;;;22.24;58.27;100134.97;10412633;28;20068;-71
2022/05/29 17:50:42;;;;;;;68.28;14.95;;;;;;;22.12;59.74;100145.88;10412598;28;20053;-73
2022/05/29 17:55:43;;;;;;;39.30;12.35;;;;;;;21.92;58.99;100153.69;10428102;28;20519;-74
2022/05/29 18:00:45;;;;;;;50.92;10.90;;;;;;;21.62;60.21;100135.91;10413349;28;20382;-73
2022/05/29 18:05:49;;;;;;;35.10;12.07;;;;;;;21.35;61.39;100130.28;10431456;28;20546;-73
2022/05/29 18:10:52;;;;;;;;;;;;;;;21.54;58.75;100150.66;10454382;28;20415;-71
2022/05/29 18:15:53;;;;;;;27.10;8.38;;;;;;;21.03;60.15;100130.84;10453271;28;20265;-73
2022/05/29 18:20:54;;;;;;;27.60;7.55;;;;;;;21.06;60.79;100151.09;10451699;28;20041;-72
2022/05/29 18:25:58;;;;;;;26.95;7.82;;;;;;;20.78;61.95;100139.25;10454018;28;20519;-73
2022/05/29 18:30:59;;;;;;;57.08;17.92;;;;;;;20.72;61.60;100157.22;10430652;28;20038;-74
2022/05/29 18:36:00;;;;;;;42.55;16.50;;;;;;;20.48;63.12;100153.72;10444342;28;20042;-73
2022/05/29 18:41:03;;;;;;;37.72;15.25;;;;;;;20.18;66.42;100140.41;10439094;28;20431;-74
2022/05/29 18:46:08;;;;;;;;;;;;;;;20.42;63.34;100149.28;10441156;28;20045;-70
2022/05/29 18:51:12;;;;;;;31.10;12.13;;;;;;;20.17;65.30;100146.06;10419918;28;19974;-73
2022/05/29 18:56:13;;;;;;;34.25;11.50;;;;;;;19.74;65.11;100096.00;10441464;28;20041;-73
2022/05/29 19:01:14;;;;;;;32.30;8.25;;;;;;;18.38;65.91;99891.28;10451140;28;20053;-73
2022/05/29 19:06:19;;;;;;;34.72;7.82;;;;;;;18.65;68.33;99948.19;10458537;28;20033;-73
2022/05/29 19:11:20;;;;;;;21.42;6.30;;;;;;;19.55;66.92;100101.47;10454361;28;20102;-73
2022/05/29 19:16:26;;;;;;;22.05;5.97;;;;;;;18.90;69.83;100001.84;10456752;28;20098;-73
2022/05/29 19:21:27;;;;;;;14.07;5.57;;;;;;;19.69;68.04;100141.72;10449176;28;20488;-72
2022/05/29 19:26:33;;;;;;;21.23;7.32;;;;;;;18.68;69.88;99998.84;10449803;28;20083;-72
2022/05/29 19:31:37;;;;;;;33.38;13.98;;;;;;;18.81;69.73;100039.03;10455244;28;20461;-72
2022/05/29 19:36:40;;;;;;;38.63;15.27;;;;;;;18.65;69.37;100035.09;10448367;28;20068;-73
2022/05/29 19:41:40;;;;;;;35.72;17.08;;;;;;;19.32;68.80;100150.72;10459159;28;20041;-72
2022/05/29 19:46:41;;;;;;;38.65;15.45;;;;;;;19.27;69.13;100156.00;10453264;28;20091;-72
2022/05/29 19:51:42;;;;;;;24.15;11.93;;;;;;;19.21;69.62;100150.72;10432684;28;20057;-73
2022/05/29 19:56:43;;;;;;;34.72;15.82;;;;;;;18.88;69.48;100114.31;10457709;28;20040;-71
2022/05/29 20:01:44;;;;;;;44.13;23.15;;;;;;;19.05;69.97;100152.16;10457817;28;20056;-73
2022/05/29 20:06:45;;;;;;;39.03;23.52;;;;;;;18.86;70.67;100148.69;10457968;28;20094;-74
2022/05/29 20:11:46;;;;;;;37.00;20.30;;;;;;;18.76;71.26;100148.44;10457774;28;20386;-74
2022/05/29 20:16:49;;;;;;;48.30;26.42;;;;;;;18.60;71.69;100156.00;10457325;28;20033;-72
2022/05/29 20:21:50;;;;;;;43.17;19.67;;;;;;;18.51;71.98;100151.97;10457352;28;20052;-71
2022/05/29 20:26:51;;;;;;;40.53;17.00;;;;;;;18.46;72.33;100154.56;10455856;28;20497;-72
2022/05/29 20:31:52;;;;;;;25.33;12.20;;;;;;;18.36;73.07;100156.91;10456895;28;20041;-74
2022/05/29 20:36:54;;;;;;;34.05;12.77;;;;;;;17.45;73.17;100016.00;10456662;28;20469;-73
2022/05/29 20:41:55;;;;;;;25.00;10.65;;;;;;;18.27;73.29;100155.56;10456314;28;20463;-74
2022/05/29 20:52:19;;;;;;;24.27;9.30;;;;;;;16.99;75.43;99996.59;10456685;28;20049;-74
2022/05/29 20:57:22;;;;;;;20.35;7.70;;;;;;;17.51;75.78;100115.31;10455431;28;20045;-73
2022/05/29 21:02:23;;;;;;;11.60;6.18;;;;;;;17.72;76.36;100143.66;10455133;28;20049;-73
2022/05/29 21:07:24;;;;;;;11.75;6.50;;;;;;;17.48;77.06;100106.88;10455709;28;20438;-73
2022/05/29 21:12:25;;;;;;;18.02;6.38;;;;;;;17.01;77.02;100036.59;10455792;28;20532;-73
2022/05/29 21:17:27;;;;;;;15.63;6.60;;;;;;;16.10;77.77;99903.72;10455614;28;20037;-73
2022/05/29 21:22:28;;;;;;;10.20;5.90;;;;;;;17.55;78.25;100132.63;10454442;28;20044;-73
2022/05/29 21:27:28;;;;;;;16.65;6.10;;;;;;;17.52;78.28;100124.19;10455412;28;20036;-73
2022/05/29 21:32:29;;;;;;;14.32;6.40;;;;;;;17.46;78.90;100141.16;10454832;28;20048;-73
2022/05/29 21:42:50;;;;;;;14.45;6.40;;;;;;;17.20;79.69;100115.31;10454754;28;20392;-75
2022/05/29 21:47:50;;;;;;;13.32;5.15;;;;;;;17.24;79.65;100151.47;10455050;28;20037;-74
2022/05/29 21:52:52;;;;;;;10.65;5.80;;;;;;;17.08;79.91;100117.88;10454553;28;20083;-73
2022/05/29 21:57:52;;;;;;;11.88;5.65;;;;;;;16.54;79.57;100044.94;10453711;28;20148;-73
2022/05/29 22:02:53;;;;;;;15.00;7.05;;;;;;;16.94;79.22;100130.56;10454732;28;20525;-73
2022/05/29 22:07:54;;;;;;;11.65;6.82;;;;;;;16.68;79.37;100093.94;10454506;28;20099;-73
2022/05/29 22:12:55;;;;;;;15.05;6.32;;;;;;;16.83;79.33;100133.91;10457209;28;20032;-72
2022/05/29 22:17:55;;;;;;;11.00;5.63;;;;;;;16.04;79.54;100017.09;10461732;28;20037;-72
2022/05/29 22:22:56;;;;;;;19.65;5.15;;;;;;;15.91;79.31;99994.69;10461399;28;20048;-73
2022/05/29 22:27:57;;;;;;;14.60;5.53;;;;;;;16.54;79.50;100136.09;10461448;28;20041;-73
2022/05/29 22:33:11;;;;;;;9.40;5.45;;;;;;;16.63;81.11;100161.63;10461644;28;20041;-73
2022/05/29 22:38:11;;;;;;;11.57;5.47;;;;;;;16.03;79.84;100071.69;10460138;28;20037;-73
2022/05/29 22:43:12;;;;;;;17.77;6.40;;;;;;;16.57;80.55;100154.44;10460488;28;20516;-73
2022/05/29 22:48:26;;;;;;;11.98;5.50;;;;;;;16.37;83.42;100148.31;10431692;28;20041;-73
2022/05/29 22:54:14;;;;;;;13.88;5.68;;;;;;;16.40;85.23;100155.94;10458814;28;20056;-73
2022/05/29 22:59:15;;;;;;;13.93;5.55;;;;;;;16.31;81.51;100141.13;10457960;28;20099;-73
2022/05/29 23:04:42;;;;;;;8.75;4.82;;;;;;;15.52;83.46;100015.13;10460299;28;20044;-73
2022/05/29 23:09:43;;;;;;;12.38;5.20;;;;;;;15.57;81.79;100016.34;10460811;28;20128;-73
2022/05/29 23:14:44;;;;;;;14.02;5.88;;;;;;;16.35;81.86;100134.28;10460188;28;20116;-73
2022/05/29 23:19:45;;;;;;;11.45;6.13;;;;;;;15.50;81.96;100019.88;10458894;28;20036;-73
2022/05/29 23:24:52;;;;;;;18.20;6.38;;;;;;;16.24;83.76;100148.34;10458434;28;20142;-73
2022/05/29 23:30:08;;;;;;;11.68;5.38;;;;;;;16.02;82.81;100129.00;10460726;28;20045;-72
2022/05/29 23:35:09;;;;;;;19.25;5.45;;;;;;;15.91;82.82;100122.41;10458140;28;20494;-73
2022/05/29 23:40:12;;;;;;;13.25;5.43;;;;;;;15.12;82.48;100013.50;10458926;28;20041;-72
2022/05/29 23:45:19;;;;;;;12.15;5.70;;;;;;;15.79;83.33;100149.00;10457732;28;20045;-73
2022/05/29 23:50:20;;;;;;;23.02;9.43;;;;;;;15.61;82.66;100124.69;10458236;28;20053;-73
2022/05/29 23:55:21;;;;;;;25.08;8.90;;;;;;;14.84;82.52;100020.69;10458787;28;20079;-73
